Aviation Digital Data Service (ADDS)

Output produced by METARs form (1624 UTC 28 July 2014)
found at http://aviationweather.gov/adds/metars/
 
KMPV 281307Z 2813/2912 00000KT 3SM -RA BR OVC090 
     TEMPO 2813/2816 2SM RA SCT006 OVC020 
     FM281600 05005KT 5SM -RA BR OVC010 
     FM290000 29004KT 6SM -SHRA BR OVC020 
     FM291100 30006KT P6SM SCT030